sensor_id;sensor_type;location;lat;lon;timestamp;temperature;humidity
40808;DHT22;26523;52.504;13.498;2023-04-06T00:01:10;3.80;99.90
40808;DHT22;26523;52.504;13.498;2023-04-06T00:03:36;3.80;99.90
40808;DHT22;26523;52.504;13.498;2023-04-06T00:06:02;3.70;99.90
40808;DHT22;26523;52.504;13.498;2023-04-06T00:08:28;3.70;99.90
40808;DHT22;26523;52.504;13.498;2023-04-06T00:10:54;3.70;99.90
40808;DHT22;26523;52.504;13.498;2023-04-06T00:13:20;3.70;99.90
40808;DHT22;26523;52.504;13.498;2023-04-06T00:15:46;3.70;99.90
40808;DHT22;26523;52.504;13.498;2023-04-06T00:18:11;3.60;99.90
40808;DHT22;26523;52.504;13.498;2023-04-06T00:20:37;3.70;99.90
40808;DHT22;26523;52.504;13.498;2023-04-06T00:23:03;3.60;99.90
40808;DHT22;26523;52.504;13.498;2023-04-06T00:25:29;3.60;99.90
40808;DHT22;26523;52.504;13.498;2023-04-06T00:27:55;3.60;99.90
40808;DHT22;26523;52.504;13.498;2023-04-06T00:30:21;3.60;99.90
40808;DHT22;26523;52.504;13.498;2023-04-06T00:32:46;3.60;99.90
40808;DHT22;26523;52.504;13.498;2023-04-06T00:35:12;3.50;99.90
40808;DHT22;26523;52.504;13.498;2023-04-06T00:37:38;3.50;99.90
40808;DHT22;26523;52.504;13.498;2023-04-06T00:40:04;3.50;99.90
40808;DHT22;26523;52.504;13.498;2023-04-06T00:42:30;3.60;99.90
40808;DHT22;26523;52.504;13.498;2023-04-06T00:44:58;3.50;99.90
40808;DHT22;26523;52.504;13.498;2023-04-06T00:47:24;3.50;99.90
40808;DHT22;26523;52.504;13.498;2023-04-06T00:49:51;3.40;99.90
40808;DHT22;26523;52.504;13.498;2023-04-06T00:52:17;3.40;99.90
40808;DHT22;26523;52.504;13.498;2023-04-06T00:54:43;3.40;99.90
40808;DHT22;26523;52.504;13.498;2023-04-06T00:57:11;3.40;99.90
40808;DHT22;26523;52.504;13.498;2023-04-06T00:59:37;3.40;99.90
40808;DHT22;26523;52.504;13.498;2023-04-06T01:02:03;3.50;99.90
40808;DHT22;26523;52.504;13.498;2023-04-06T01:04:28;3.50;99.90
40808;DHT22;26523;52.504;13.498;2023-04-06T01:06:54;3.40;99.90
40808;DHT22;26523;52.504;13.498;2023-04-06T01:09:21;3.40;99.90
40808;DHT22;26523;52.504;13.498;2023-04-06T01:11:47;3.40;99.90
40808;DHT22;26523;52.504;13.498;2023-04-06T01:14:14;3.40;99.90
40808;DHT22;26523;52.504;13.498;2023-04-06T01:16:41;3.40;99.90
40808;DHT22;26523;52.504;13.498;2023-04-06T01:19:12;3.40;99.90
40808;DHT22;26523;52.504;13.498;2023-04-06T01:21:38;3.30;99.90
40808;DHT22;26523;52.504;13.498;2023-04-06T01:24:05;3.30;99.90
40808;DHT22;26523;52.504;13.498;2023-04-06T01:26:31;3.30;99.90
40808;DHT22;26523;52.504;13.498;2023-04-06T01:28:57;3.40;99.90
40808;DHT22;26523;52.504;13.498;2023-04-06T01:31:23;3.40;99.90
40808;DHT22;26523;52.504;13.498;2023-04-06T01:33:49;3.40;99.90
40808;DHT22;26523;52.504;13.498;2023-04-06T01:36:15;3.40;99.90
40808;DHT22;26523;52.504;13.498;2023-04-06T01:38:41;3.30;99.90
40808;DHT22;26523;52.504;13.498;2023-04-06T01:41:07;3.30;99.90
40808;DHT22;26523;52.504;13.498;2023-04-06T01:43:33;3.20;99.90
40808;DHT22;26523;52.504;13.498;2023-04-06T01:45:59;3.20;99.90
40808;DHT22;26523;52.504;13.498;2023-04-06T01:48:27;3.20;99.90
40808;DHT22;26523;52.504;13.498;2023-04-06T01:50:53;3.20;99.90
40808;DHT22;26523;52.504;13.498;2023-04-06T01:53:19;3.20;99.90
40808;DHT22;26523;52.504;13.498;2023-04-06T01:55:45;3.10;99.90
40808;DHT22;26523;52.504;13.498;2023-04-06T01:58:11;3.10;99.90
40808;DHT22;26523;52.504;13.498;2023-04-06T02:00:37;3.10;99.90
40808;DHT22;26523;52.504;13.498;2023-04-06T02:03:02;3.10;99.90
40808;DHT22;26523;52.504;13.498;2023-04-06T02:05:30;3.20;99.90
40808;DHT22;26523;52.504;13.498;2023-04-06T02:07:56;3.20;99.90
40808;DHT22;26523;52.504;13.498;2023-04-06T02:10:22;3.20;99.90
40808;DHT22;26523;52.504;13.498;2023-04-06T02:12:48;3.20;99.90
40808;DHT22;26523;52.504;13.498;2023-04-06T02:15:14;3.10;99.90
40808;DHT22;26523;52.504;13.498;2023-04-06T02:17:40;3.10;99.90
40808;DHT22;26523;52.504;13.498;2023-04-06T02:20:06;3.00;99.90
40808;DHT22;26523;52.504;13.498;2023-04-06T02:22:33;3.00;99.90
40808;DHT22;26523;52.504;13.498;2023-04-06T02:24:59;3.00;99.90
40808;DHT22;26523;52.504;13.498;2023-04-06T02:27:25;2.90;99.90
40808;DHT22;26523;52.504;13.498;2023-04-06T02:29:51;2.80;99.90
40808;DHT22;26523;52.504;13.498;2023-04-06T02:32:17;2.80;99.90
40808;DHT22;26523;52.504;13.498;2023-04-06T02:34:42;2.80;99.90
40808;DHT22;26523;52.504;13.498;2023-04-06T02:37:08;2.80;99.90
40808;DHT22;26523;52.504;13.498;2023-04-06T02:39:34;2.90;99.90
40808;DHT22;26523;52.504;13.498;2023-04-06T02:41:59;2.80;99.90
40808;DHT22;26523;52.504;13.498;2023-04-06T02:44:25;2.70;99.90
40808;DHT22;26523;52.504;13.498;2023-04-06T02:46:51;2.70;99.90
40808;DHT22;26523;52.504;13.498;2023-04-06T02:49:17;2.70;99.90
40808;DHT22;26523;52.504;13.498;2023-04-06T02:51:43;2.70;99.90
40808;DHT22;26523;52.504;13.498;2023-04-06T02:54:08;2.70;99.90
40808;DHT22;26523;52.504;13.498;2023-04-06T02:56:34;2.70;99.90
40808;DHT22;26523;52.504;13.498;2023-04-06T02:59:00;2.60;99.90
40808;DHT22;26523;52.504;13.498;2023-04-06T03:01:26;2.50;99.90
40808;DHT22;26523;52.504;13.498;2023-04-06T03:03:52;2.50;99.90
40808;DHT22;26523;52.504;13.498;2023-04-06T03:06:17;2.50;99.90
40808;DHT22;26523;52.504;13.498;2023-04-06T03:08:43;2.40;99.90
40808;DHT22;26523;52.504;13.498;2023-04-06T03:11:09;2.30;99.90
40808;DHT22;26523;52.504;13.498;2023-04-06T03:13:36;2.20;99.90
40808;DHT22;26523;52.504;13.498;2023-04-06T03:16:04;2.20;99.90
40808;DHT22;26523;52.504;13.498;2023-04-06T03:18:31;2.10;99.90
40808;DHT22;26523;52.504;13.498;2023-04-06T03:20:56;1.90;99.90
40808;DHT22;26523;52.504;13.498;2023-04-06T03:23:22;1.90;99.90
40808;DHT22;26523;52.504;13.498;2023-04-06T03:25:48;1.80;99.90
40808;DHT22;26523;52.504;13.498;2023-04-06T03:28:14;1.80;99.90
40808;DHT22;26523;52.504;13.498;2023-04-06T03:30:41;1.70;99.90
40808;DHT22;26523;52.504;13.498;2023-04-06T03:33:07;1.60;99.90
40808;DHT22;26523;52.504;13.498;2023-04-06T03:35:33;1.50;99.90
40808;DHT22;26523;52.504;13.498;2023-04-06T03:37:58;1.40;99.90
40808;DHT22;26523;52.504;13.498;2023-04-06T03:40:24;1.40;99.90
40808;DHT22;26523;52.504;13.498;2023-04-06T03:42:50;1.30;99.90
40808;DHT22;26523;52.504;13.498;2023-04-06T03:45:16;1.30;99.90
40808;DHT22;26523;52.504;13.498;2023-04-06T03:47:42;1.20;99.90
40808;DHT22;26523;52.504;13.498;2023-04-06T03:50:08;1.20;99.90
40808;DHT22;26523;52.504;13.498;2023-04-06T03:52:35;1.20;99.90
40808;DHT22;26523;52.504;13.498;2023-04-06T03:55:00;1.10;99.90
40808;DHT22;26523;52.504;13.498;2023-04-06T03:57:26;1.10;99.90
40808;DHT22;26523;52.504;13.498;2023-04-06T03:59:52;1.00;99.90
40808;DHT22;26523;52.504;13.498;2023-04-06T04:02:17;1.10;99.90
40808;DHT22;26523;52.504;13.498;2023-04-06T04:04:43;1.00;99.90
40808;DHT22;26523;52.504;13.498;2023-04-06T04:07:09;0.90;99.90
40808;DHT22;26523;52.504;13.498;2023-04-06T04:09:35;0.90;99.90
40808;DHT22;26523;52.504;13.498;2023-04-06T04:12:01;0.80;99.90
40808;DHT22;26523;52.504;13.498;2023-04-06T04:14:26;0.80;99.90
40808;DHT22;26523;52.504;13.498;2023-04-06T04:16:52;0.80;99.90
40808;DHT22;26523;52.504;13.498;2023-04-06T04:19:18;0.70;99.90
40808;DHT22;26523;52.504;13.498;2023-04-06T04:21:45;0.70;99.90
40808;DHT22;26523;52.504;13.498;2023-04-06T04:24:11;0.60;99.90
40808;DHT22;26523;52.504;13.498;2023-04-06T04:26:37;0.60;99.90
40808;DHT22;26523;52.504;13.498;2023-04-06T04:29:03;0.50;99.90
40808;DHT22;26523;52.504;13.498;2023-04-06T04:31:29;0.50;99.90
40808;DHT22;26523;52.504;13.498;2023-04-06T04:33:55;0.50;99.90
40808;DHT22;26523;52.504;13.498;2023-04-06T04:36:20;0.40;99.90
40808;DHT22;26523;52.504;13.498;2023-04-06T04:38:46;0.40;99.90
40808;DHT22;26523;52.504;13.498;2023-04-06T04:41:12;0.40;99.90
40808;DHT22;26523;52.504;13.498;2023-04-06T04:43:38;0.40;99.90
40808;DHT22;26523;52.504;13.498;2023-04-06T04:46:04;0.30;99.90
40808;DHT22;26523;52.504;13.498;2023-04-06T04:48:30;0.30;99.90
40808;DHT22;26523;52.504;13.498;2023-04-06T04:50:56;0.40;99.90
40808;DHT22;26523;52.504;13.498;2023-04-06T04:53:21;0.50;99.90
40808;DHT22;26523;52.504;13.498;2023-04-06T04:55:47;0.50;99.90
40808;DHT22;26523;52.504;13.498;2023-04-06T04:58:13;0.50;99.90
40808;DHT22;26523;52.504;13.498;2023-04-06T05:00:46;0.50;99.90
40808;DHT22;26523;52.504;13.498;2023-04-06T05:03:25;0.50;99.90
40808;DHT22;26523;52.504;13.498;2023-04-06T05:05:52;0.60;99.90
40808;DHT22;26523;52.504;13.498;2023-04-06T05:08:18;0.50;99.90
40808;DHT22;26523;52.504;13.498;2023-04-06T05:10:44;0.50;99.90
40808;DHT22;26523;52.504;13.498;2023-04-06T05:13:10;0.50;99.90
40808;DHT22;26523;52.504;13.498;2023-04-06T05:15:36;0.60;99.90
40808;DHT22;26523;52.504;13.498;2023-04-06T05:18:06;0.60;99.90
40808;DHT22;26523;52.504;13.498;2023-04-06T05:20:33;0.70;99.90
40808;DHT22;26523;52.504;13.498;2023-04-06T05:22:59;0.80;99.90
40808;DHT22;26523;52.504;13.498;2023-04-06T05:25:25;0.90;99.90
40808;DHT22;26523;52.504;13.498;2023-04-06T05:27:51;1.00;99.90
40808;DHT22;26523;52.504;13.498;2023-04-06T05:30:17;1.00;99.90
40808;DHT22;26523;52.504;13.498;2023-04-06T05:32:42;1.10;99.90
40808;DHT22;26523;52.504;13.498;2023-04-06T05:35:09;1.20;99.90
40808;DHT22;26523;52.504;13.498;2023-04-06T05:37:36;1.30;99.90
40808;DHT22;26523;52.504;13.498;2023-04-06T05:40:01;1.40;99.90
40808;DHT22;26523;52.504;13.498;2023-04-06T05:42:28;1.50;99.90
40808;DHT22;26523;52.504;13.498;2023-04-06T05:45:02;1.60;99.90
40808;DHT22;26523;52.504;13.498;2023-04-06T05:47:28;1.60;99.90
40808;DHT22;26523;52.504;13.498;2023-04-06T05:49:53;1.70;99.90
40808;DHT22;26523;52.504;13.498;2023-04-06T05:52:19;1.80;99.90
40808;DHT22;26523;52.504;13.498;2023-04-06T05:54:45;2.00;99.90
40808;DHT22;26523;52.504;13.498;2023-04-06T05:57:11;2.00;99.90
40808;DHT22;26523;52.504;13.498;2023-04-06T05:59:36;2.10;99.90
40808;DHT22;26523;52.504;13.498;2023-04-06T06:02:02;2.20;99.90
40808;DHT22;26523;52.504;13.498;2023-04-06T06:04:30;2.40;99.90
40808;DHT22;26523;52.504;13.498;2023-04-06T06:06:56;2.40;99.90
40808;DHT22;26523;52.504;13.498;2023-04-06T06:09:21;2.60;99.90
40808;DHT22;26523;52.504;13.498;2023-04-06T06:11:48;2.70;99.90
40808;DHT22;26523;52.504;13.498;2023-04-06T06:14:14;2.80;99.90
40808;DHT22;26523;52.504;13.498;2023-04-06T06:16:41;2.90;99.90
40808;DHT22;26523;52.504;13.498;2023-04-06T06:19:06;3.00;99.90
40808;DHT22;26523;52.504;13.498;2023-04-06T06:21:34;3.10;99.90
40808;DHT22;26523;52.504;13.498;2023-04-06T06:23:59;3.20;99.90
40808;DHT22;26523;52.504;13.498;2023-04-06T06:26:28;3.30;99.90
40808;DHT22;26523;52.504;13.498;2023-04-06T06:28:54;3.50;99.90
40808;DHT22;26523;52.504;13.498;2023-04-06T06:31:20;3.60;99.90
40808;DHT22;26523;52.504;13.498;2023-04-06T06:33:51;3.70;99.90
40808;DHT22;26523;52.504;13.498;2023-04-06T06:36:17;3.80;99.90
40808;DHT22;26523;52.504;13.498;2023-04-06T06:38:44;4.00;99.90
40808;DHT22;26523;52.504;13.498;2023-04-06T06:41:10;4.10;99.90
40808;DHT22;26523;52.504;13.498;2023-04-06T06:43:36;4.20;99.90
40808;DHT22;26523;52.504;13.498;2023-04-06T06:46:02;4.40;99.90
40808;DHT22;26523;52.504;13.498;2023-04-06T06:48:28;4.50;99.90
40808;DHT22;26523;52.504;13.498;2023-04-06T06:50:54;4.60;99.90
40808;DHT22;26523;52.504;13.498;2023-04-06T06:53:20;4.70;99.90
40808;DHT22;26523;52.504;13.498;2023-04-06T06:55:45;4.90;99.90
40808;DHT22;26523;52.504;13.498;2023-04-06T06:58:11;5.10;99.90
40808;DHT22;26523;52.504;13.498;2023-04-06T07:00:37;5.20;99.90
40808;DHT22;26523;52.504;13.498;2023-04-06T07:03:03;5.40;99.90
40808;DHT22;26523;52.504;13.498;2023-04-06T07:05:28;5.60;99.90
40808;DHT22;26523;52.504;13.498;2023-04-06T07:07:55;5.80;99.90
40808;DHT22;26523;52.504;13.498;2023-04-06T07:10:21;6.00;99.90
40808;DHT22;26523;52.504;13.498;2023-04-06T07:12:46;6.30;99.90
40808;DHT22;26523;52.504;13.498;2023-04-06T07:15:12;7.10;99.90
40808;DHT22;26523;52.504;13.498;2023-04-06T07:17:38;9.60;99.90
40808;DHT22;26523;52.504;13.498;2023-04-06T07:20:04;13.10;94.20
40808;DHT22;26523;52.504;13.498;2023-04-06T07:22:31;15.60;84.50
40808;DHT22;26523;52.504;13.498;2023-04-06T07:24:56;17.40;74.00
40808;DHT22;26523;52.504;13.498;2023-04-06T07:27:22;18.80;70.70
40808;DHT22;26523;52.504;13.498;2023-04-06T07:29:48;20.20;66.90
40808;DHT22;26523;52.504;13.498;2023-04-06T07:32:14;20.80;63.10
40808;DHT22;26523;52.504;13.498;2023-04-06T07:34:40;22.10;60.60
40808;DHT22;26523;52.504;13.498;2023-04-06T07:37:05;23.00;59.00
40808;DHT22;26523;52.504;13.498;2023-04-06T07:39:31;23.00;56.80
40808;DHT22;26523;52.504;13.498;2023-04-06T07:41:57;23.50;53.90
40808;DHT22;26523;52.504;13.498;2023-04-06T07:44:22;24.40;53.00
40808;DHT22;26523;52.504;13.498;2023-04-06T07:46:48;26.10;50.90
40808;DHT22;26523;52.504;13.498;2023-04-06T07:49:14;25.30;49.60
40808;DHT22;26523;52.504;13.498;2023-04-06T07:51:40;25.40;49.10
40808;DHT22;26523;52.504;13.498;2023-04-06T07:54:06;26.00;48.40
40808;DHT22;26523;52.504;13.498;2023-04-06T07:56:31;25.80;48.40
40808;DHT22;26523;52.504;13.498;2023-04-06T07:58:57;26.30;48.40
40808;DHT22;26523;52.504;13.498;2023-04-06T08:01:24;26.60;47.80
40808;DHT22;26523;52.504;13.498;2023-04-06T08:03:50;27.60;46.90
40808;DHT22;26523;52.504;13.498;2023-04-06T08:06:16;27.50;45.50
40808;DHT22;26523;52.504;13.498;2023-04-06T08:08:42;27.90;44.80
40808;DHT22;26523;52.504;13.498;2023-04-06T08:11:08;27.80;44.60
40808;DHT22;26523;52.504;13.498;2023-04-06T08:13:34;26.90;44.20
40808;DHT22;26523;52.504;13.498;2023-04-06T08:16:01;26.00;44.90
40808;DHT22;26523;52.504;13.498;2023-04-06T08:18:27;26.40;44.90
40808;DHT22;26523;52.504;13.498;2023-04-06T08:20:54;26.40;44.50
40808;DHT22;26523;52.504;13.498;2023-04-06T08:23:19;25.80;44.10
40808;DHT22;26523;52.504;13.498;2023-04-06T08:25:45;26.40;44.20
40808;DHT22;26523;52.504;13.498;2023-04-06T08:28:11;25.80;44.00
40808;DHT22;26523;52.504;13.498;2023-04-06T08:30:40;24.70;45.10
40808;DHT22;26523;52.504;13.498;2023-04-06T08:33:06;23.00;46.40
40808;DHT22;26523;52.504;13.498;2023-04-06T08:35:39;22.80;47.20
40808;DHT22;26523;52.504;13.498;2023-04-06T08:38:05;23.00;46.40
40808;DHT22;26523;52.504;13.498;2023-04-06T08:40:39;23.30;46.20
40808;DHT22;26523;52.504;13.498;2023-04-06T08:43:10;22.80;46.50
40808;DHT22;26523;52.504;13.498;2023-04-06T08:45:40;23.70;46.30
40808;DHT22;26523;52.504;13.498;2023-04-06T08:48:06;23.00;46.30
40808;DHT22;26523;52.504;13.498;2023-04-06T08:50:33;22.20;47.10
40808;DHT22;26523;52.504;13.498;2023-04-06T08:52:59;21.20;46.90
40808;DHT22;26523;52.504;13.498;2023-04-06T08:55:25;20.50;48.80
40808;DHT22;26523;52.504;13.498;2023-04-06T08:57:52;21.20;47.60
40808;DHT22;26523;52.504;13.498;2023-04-06T09:00:21;22.80;46.60
40808;DHT22;26523;52.504;13.498;2023-04-06T09:02:49;23.10;46.50
40808;DHT22;26523;52.504;13.498;2023-04-06T09:05:15;23.10;46.20
40808;DHT22;26523;52.504;13.498;2023-04-06T09:07:41;22.80;46.50
40808;DHT22;26523;52.504;13.498;2023-04-06T09:10:07;22.40;46.70
40808;DHT22;26523;52.504;13.498;2023-04-06T09:12:34;23.20;46.30
40808;DHT22;26523;52.504;13.498;2023-04-06T09:15:00;23.00;44.40
40808;DHT22;26523;52.504;13.498;2023-04-06T09:17:31;24.50;44.10
40808;DHT22;26523;52.504;13.498;2023-04-06T09:20:02;25.70;42.90
40808;DHT22;26523;52.504;13.498;2023-04-06T09:22:39;25.00;43.00
40808;DHT22;26523;52.504;13.498;2023-04-06T09:25:05;24.70;43.10
40808;DHT22;26523;52.504;13.498;2023-04-06T09:27:33;23.40;44.20
40808;DHT22;26523;52.504;13.498;2023-04-06T09:30:10;21.90;45.10
40808;DHT22;26523;52.504;13.498;2023-04-06T09:32:53;20.10;46.70
40808;DHT22;26523;52.504;13.498;2023-04-06T09:35:19;18.60;48.50
40808;DHT22;26523;52.504;13.498;2023-04-06T09:37:49;17.10;50.40
40808;DHT22;26523;52.504;13.498;2023-04-06T09:40:15;16.30;51.60
40808;DHT22;26523;52.504;13.498;2023-04-06T09:42:45;15.60;52.90
40808;DHT22;26523;52.504;13.498;2023-04-06T09:45:12;15.00;53.80
40808;DHT22;26523;52.504;13.498;2023-04-06T09:47:40;14.70;54.00
40808;DHT22;26523;52.504;13.498;2023-04-06T09:50:09;14.40;54.50
40808;DHT22;26523;52.504;13.498;2023-04-06T09:52:44;13.90;54.30
40808;DHT22;26523;52.504;13.498;2023-04-06T09:55:12;13.70;55.50
40808;DHT22;26523;52.504;13.498;2023-04-06T09:57:52;13.50;55.80
40808;DHT22;26523;52.504;13.498;2023-04-06T10:00:21;13.30;57.40
40808;DHT22;26523;52.504;13.498;2023-04-06T10:02:58;13.20;57.50
40808;DHT22;26523;52.504;13.498;2023-04-06T10:05:33;12.60;57.30
40808;DHT22;26523;52.504;13.498;2023-04-06T10:08:08;12.10;57.80
40808;DHT22;26523;52.504;13.498;2023-04-06T10:10:34;12.10;59.00
40808;DHT22;26523;52.504;13.498;2023-04-06T10:13:00;12.20;59.70
40808;DHT22;26523;52.504;13.498;2023-04-06T10:15:28;12.30;58.00
40808;DHT22;26523;52.504;13.498;2023-04-06T10:17:56;12.10;57.70
40808;DHT22;26523;52.504;13.498;2023-04-06T10:20:28;12.20;57.80
40808;DHT22;26523;52.504;13.498;2023-04-06T10:23:06;12.20;57.60
40808;DHT22;26523;52.504;13.498;2023-04-06T10:25:33;12.20;57.30
40808;DHT22;26523;52.504;13.498;2023-04-06T10:28:07;12.30;57.50
40808;DHT22;26523;52.504;13.498;2023-04-06T10:30:33;12.30;57.60
40808;DHT22;26523;52.504;13.498;2023-04-06T10:32:59;12.40;57.50
40808;DHT22;26523;52.504;13.498;2023-04-06T10:35:36;12.40;57.10
40808;DHT22;26523;52.504;13.498;2023-04-06T10:38:03;12.00;56.90
40808;DHT22;26523;52.504;13.498;2023-04-06T10:40:30;11.60;59.00
40808;DHT22;26523;52.504;13.498;2023-04-06T10:43:08;11.60;59.40
40808;DHT22;26523;52.504;13.498;2023-04-06T10:45:36;11.60;59.80
40808;DHT22;26523;52.504;13.498;2023-04-06T10:48:15;11.90;58.80
40808;DHT22;26523;52.504;13.498;2023-04-06T10:50:47;12.00;59.00
40808;DHT22;26523;52.504;13.498;2023-04-06T10:53:27;11.90;57.80
40808;DHT22;26523;52.504;13.498;2023-04-06T10:55:57;12.00;57.80
40808;DHT22;26523;52.504;13.498;2023-04-06T10:58:26;12.20;57.60
40808;DHT22;26523;52.504;13.498;2023-04-06T11:00:52;12.50;58.10
40808;DHT22;26523;52.504;13.498;2023-04-06T11:03:19;12.60;57.10
40808;DHT22;26523;52.504;13.498;2023-04-06T11:05:49;12.40;57.20
40808;DHT22;26523;52.504;13.498;2023-04-06T11:08:33;12.10;57.60
40808;DHT22;26523;52.504;13.498;2023-04-06T11:11:17;12.00;58.30
40808;DHT22;26523;52.504;13.498;2023-04-06T11:13:59;12.10;58.00
40808;DHT22;26523;52.504;13.498;2023-04-06T11:16:27;12.10;58.20
40808;DHT22;26523;52.504;13.498;2023-04-06T11:21:43;11.90;58.50
40808;DHT22;26523;52.504;13.498;2023-04-06T11:24:19;12.30;57.10
40808;DHT22;26523;52.504;13.498;2023-04-06T11:26:46;12.60;57.90
40808;DHT22;26523;52.504;13.498;2023-04-06T11:29:15;12.90;57.90
40808;DHT22;26523;52.504;13.498;2023-04-06T11:31:45;13.10;56.60
40808;DHT22;26523;52.504;13.498;2023-04-06T11:36:45;12.60;57.10
40808;DHT22;26523;52.504;13.498;2023-04-06T11:39:18;12.50;57.70
40808;DHT22;26523;52.504;13.498;2023-04-06T11:41:48;12.40;57.70
40808;DHT22;26523;52.504;13.498;2023-04-06T11:44:14;12.10;57.80
40808;DHT22;26523;52.504;13.498;2023-04-06T11:46:40;11.90;58.00
40808;DHT22;26523;52.504;13.498;2023-04-06T11:49:06;11.70;57.90
40808;DHT22;26523;52.504;13.498;2023-04-06T11:51:36;11.60;58.40
40808;DHT22;26523;52.504;13.498;2023-04-06T11:54:02;11.50;58.90
40808;DHT22;26523;52.504;13.498;2023-04-06T11:56:29;11.30;58.80
40808;DHT22;26523;52.504;13.498;2023-04-06T11:58:58;11.10;59.30
40808;DHT22;26523;52.504;13.498;2023-04-06T12:01:29;11.10;59.50
40808;DHT22;26523;52.504;13.498;2023-04-06T12:03:55;11.10;60.80
40808;DHT22;26523;52.504;13.498;2023-04-06T12:06:22;11.00;59.50
40808;DHT22;26523;52.504;13.498;2023-04-06T12:08:48;11.00;60.10
40808;DHT22;26523;52.504;13.498;2023-04-06T12:11:15;10.90;59.20
40808;DHT22;26523;52.504;13.498;2023-04-06T12:13:40;10.70;60.10
40808;DHT22;26523;52.504;13.498;2023-04-06T12:16:06;10.80;60.00
40808;DHT22;26523;52.504;13.498;2023-04-06T12:18:32;11.00;60.40
40808;DHT22;26523;52.504;13.498;2023-04-06T12:20:58;11.00;59.20
40808;DHT22;26523;52.504;13.498;2023-04-06T12:23:24;11.10;59.50
40808;DHT22;26523;52.504;13.498;2023-04-06T12:25:50;11.00;59.70
40808;DHT22;26523;52.504;13.498;2023-04-06T12:28:17;11.00;59.60
40808;DHT22;26523;52.504;13.498;2023-04-06T12:30:43;10.80;59.40
40808;DHT22;26523;52.504;13.498;2023-04-06T12:33:09;10.30;60.10
40808;DHT22;26523;52.504;13.498;2023-04-06T12:35:35;10.30;61.10
40808;DHT22;26523;52.504;13.498;2023-04-06T12:38:00;10.10;60.80
40808;DHT22;26523;52.504;13.498;2023-04-06T12:40:26;9.90;60.80
40808;DHT22;26523;52.504;13.498;2023-04-06T12:42:52;9.90;61.60
40808;DHT22;26523;52.504;13.498;2023-04-06T12:45:18;10.10;61.40
40808;DHT22;26523;52.504;13.498;2023-04-06T12:47:45;10.20;60.90
40808;DHT22;26523;52.504;13.498;2023-04-06T12:50:11;10.20;60.80
40808;DHT22;26523;52.504;13.498;2023-04-06T12:52:37;10.30;61.20
40808;DHT22;26523;52.504;13.498;2023-04-06T12:55:04;10.50;61.20
40808;DHT22;26523;52.504;13.498;2023-04-06T12:57:31;10.50;61.90
40808;DHT22;26523;52.504;13.498;2023-04-06T12:59:57;10.40;61.50
40808;DHT22;26523;52.504;13.498;2023-04-06T13:02:24;10.40;62.10
40808;DHT22;26523;52.504;13.498;2023-04-06T13:04:50;10.10;62.00
40808;DHT22;26523;52.504;13.498;2023-04-06T13:07:16;10.00;62.40
40808;DHT22;26523;52.504;13.498;2023-04-06T13:09:42;9.90;62.30
40808;DHT22;26523;52.504;13.498;2023-04-06T13:12:07;9.80;62.90
40808;DHT22;26523;52.504;13.498;2023-04-06T13:14:34;9.80;63.50
40808;DHT22;26523;52.504;13.498;2023-04-06T13:17:00;9.80;62.30
40808;DHT22;26523;52.504;13.498;2023-04-06T13:19:26;9.70;62.60
40808;DHT22;26523;52.504;13.498;2023-04-06T13:21:52;9.60;63.00
40808;DHT22;26523;52.504;13.498;2023-04-06T13:24:17;9.60;63.10
40808;DHT22;26523;52.504;13.498;2023-04-06T13:26:45;9.60;62.80
40808;DHT22;26523;52.504;13.498;2023-04-06T13:29:10;9.70;63.10
40808;DHT22;26523;52.504;13.498;2023-04-06T13:31:36;9.80;63.40
40808;DHT22;26523;52.504;13.498;2023-04-06T13:34:03;9.60;63.50
40808;DHT22;26523;52.504;13.498;2023-04-06T13:36:29;9.50;63.80
40808;DHT22;26523;52.504;13.498;2023-04-06T13:38:55;9.60;63.90
40808;DHT22;26523;52.504;13.498;2023-04-06T13:41:21;9.80;63.90
40808;DHT22;26523;52.504;13.498;2023-04-06T13:43:47;10.00;63.40
40808;DHT22;26523;52.504;13.498;2023-04-06T13:46:13;10.10;63.40
40808;DHT22;26523;52.504;13.498;2023-04-06T13:48:39;10.10;63.00
40808;DHT22;26523;52.504;13.498;2023-04-06T13:51:11;10.10;63.30
40808;DHT22;26523;52.504;13.498;2023-04-06T13:53:38;10.20;62.90
40808;DHT22;26523;52.504;13.498;2023-04-06T13:56:05;10.40;62.30
40808;DHT22;26523;52.504;13.498;2023-04-06T13:58:30;10.30;62.30
40808;DHT22;26523;52.504;13.498;2023-04-06T14:01:06;10.30;61.60
40808;DHT22;26523;52.504;13.498;2023-04-06T14:03:32;10.10;61.90
40808;DHT22;26523;52.504;13.498;2023-04-06T14:05:59;10.10;61.50
40808;DHT22;26523;52.504;13.498;2023-04-06T14:08:24;10.20;61.80
40808;DHT22;26523;52.504;13.498;2023-04-06T14:10:50;10.20;61.70
40808;DHT22;26523;52.504;13.498;2023-04-06T14:13:16;10.30;62.20
40808;DHT22;26523;52.504;13.498;2023-04-06T14:15:42;10.40;62.00
40808;DHT22;26523;52.504;13.498;2023-04-06T14:18:08;10.50;61.30
40808;DHT22;26523;52.504;13.498;2023-04-06T14:20:34;10.60;61.10
40808;DHT22;26523;52.504;13.498;2023-04-06T14:23:03;10.70;60.90
40808;DHT22;26523;52.504;13.498;2023-04-06T14:25:29;10.60;61.60
40808;DHT22;26523;52.504;13.498;2023-04-06T14:27:59;10.70;61.00
40808;DHT22;26523;52.504;13.498;2023-04-06T14:30:26;10.70;60.60
40808;DHT22;26523;52.504;13.498;2023-04-06T14:32:56;10.80;61.00
40808;DHT22;26523;52.504;13.498;2023-04-06T14:35:22;10.90;60.40
40808;DHT22;26523;52.504;13.498;2023-04-06T14:37:47;10.90;60.10
40808;DHT22;26523;52.504;13.498;2023-04-06T14:40:13;10.90;60.50
40808;DHT22;26523;52.504;13.498;2023-04-06T14:42:38;11.00;61.10
40808;DHT22;26523;52.504;13.498;2023-04-06T14:45:04;11.10;60.50
40808;DHT22;26523;52.504;13.498;2023-04-06T14:47:31;11.10;60.50
40808;DHT22;26523;52.504;13.498;2023-04-06T14:49:57;11.20;61.00
40808;DHT22;26523;52.504;13.498;2023-04-06T14:52:23;11.30;59.80
40808;DHT22;26523;52.504;13.498;2023-04-06T14:54:49;11.20;60.30
40808;DHT22;26523;52.504;13.498;2023-04-06T14:57:15;11.10;60.40
40808;DHT22;26523;52.504;13.498;2023-04-06T14:59:40;11.10;60.70
40808;DHT22;26523;52.504;13.498;2023-04-06T15:02:06;11.00;60.40
40808;DHT22;26523;52.504;13.498;2023-04-06T15:04:34;10.90;60.80
40808;DHT22;26523;52.504;13.498;2023-04-06T15:07:00;11.00;60.20
40808;DHT22;26523;52.504;13.498;2023-04-06T15:09:30;11.00;60.40
40808;DHT22;26523;52.504;13.498;2023-04-06T15:11:56;10.90;60.20
40808;DHT22;26523;52.504;13.498;2023-04-06T15:14:21;11.00;60.80
40808;DHT22;26523;52.504;13.498;2023-04-06T15:16:47;11.00;60.70
40808;DHT22;26523;52.504;13.498;2023-04-06T15:19:13;11.10;60.30
40808;DHT22;26523;52.504;13.498;2023-04-06T15:21:38;11.00;61.00
40808;DHT22;26523;52.504;13.498;2023-04-06T15:24:04;11.00;61.10
40808;DHT22;26523;52.504;13.498;2023-04-06T15:26:34;11.00;60.80